Time,TemperatureF,DewpointF,PressureIn,WindDirection,WindDirectionDegrees,WindSpeedMPH,WindSpeedGustMPH,Humidity,HourlyPrecipIn,Conditions,Clouds,dailyrainin,SoftwareType,DateUTC
2013-04-04 00:04:00,68.0,9.5,29.66,North,0,0.0,0.0,1,0.22,,,0.00,WUHU216HW,2013-04-04 04:04:00,
2013-04-04 00:35:00,68.0,9.5,29.65,North,0,0.0,0.0,1,0.09,,,0.00,WUHU216HW,2013-04-04 04:35:00,
2013-04-04 01:04:00,68.8,10.1,29.64,North,0,0.0,0.0,1,0.00,,,0.00,WUHU216HW,2013-04-04 05:04:00,
2013-04-04 01:35:00,69.3,10.5,29.62,North,0,0.0,0.0,1,0.00,,,0.00,WUHU216HW,2013-04-04 05:35:00,
2013-04-04 02:05:00,69.7,10.7,29.63,North,0,0.0,0.0,1,0.00,,,0.00,WUHU216HW,2013-04-04 06:05:00,
2013-04-04 02:35:00,70.0,11.0,29.63,North,0,0.0,0.0,1,0.00,,,0.00,WUHU216HW,2013-04-04 06:35:00,
2013-04-04 03:04:00,70.0,11.0,29.61,NE,45,0.0,0.0,1,0.00,,,0.00,WUHU216HW,2013-04-04 07:04:00,
2013-04-04 03:09:00,70.0,11.0,29.61,NE,45,0.0,0.0,1,0.00,,,0.00,WUHU216HW,2013-04-04 07:09:00,
2013-04-04 03:35:00,70.0,11.0,29.61,North,0,0.0,0.0,1,0.00,,,0.00,WUHU216HW,2013-04-04 07:35:00,
2013-04-04 04:05:00,70.2,11.1,29.60,North,0,0.0,0.0,1,0.00,,,0.00,WUHU216HW,2013-04-04 08:05:00,
2013-04-04 04:35:00,70.2,11.1,29.58,North,0,0.0,0.0,1,0.00,,,0.00,WUHU216HW,2013-04-04 08:35:00,
2013-04-04 05:05:00,70.6,11.3,29.57,North,0,0.0,0.0,1,0.00,,,0.00,WUHU216HW,2013-04-04 09:05:00,
2013-04-04 05:35:00,70.9,11.7,29.56,North,0,0.0,0.0,1,0.02,,,0.00,WUHU216HW,2013-04-04 09:35:00,
2013-04-04 06:04:00,71.3,12.0,29.59,North,0,0.0,0.0,1,0.02,,,0.03,WUHU216HW,2013-04-04 10:04:00,
2013-04-04 06:35:00,71.5,12.1,29.59,North,0,0.0,0.0,1,0.00,,,0.03,WUHU216HW,2013-04-04 10:35:00,
2013-04-04 07:05:00,71.5,12.1,29.58,North,0,0.0,0.0,1,0.00,,,0.03,WUHU216HW,2013-04-04 11:05:00,
2013-04-04 07:35:00,71.6,12.2,29.55,North,0,0.0,0.0,1,0.02,,,0.03,WUHU216HW,2013-04-04 11:35:00,
2013-04-04 08:05:00,71.5,12.1,29.54,North,0,0.0,0.0,1,0.02,,,0.05,WUHU216HW,2013-04-04 12:05:00,
2013-04-04 08:35:00,71.8,12.4,29.56,North,0,0.7,0.7,1,0.00,,,0.05,WUHU216HW,2013-04-04 12:35:00,
2013-04-04 09:05:00,72.5,13.0,29.59,WNW,293,0.0,0.0,1,0.00,,,0.05,WUHU216HW,2013-04-04 13:05:00,
2013-04-04 09:35:00,73.1,13.4,29.61,NNW,338,0.4,0.4,1,0.00,,,0.05,WUHU216HW,2013-04-04 13:35:00,
2013-04-04 10:05:00,73.1,13.4,29.60,WSW,248,1.6,1.6,1,0.00,,,0.05,WUHU216HW,2013-04-04 14:05:00,
2013-04-04 10:35:00,73.1,13.4,29.61,WNW,293,0.4,0.4,1,0.00,,,0.05,WUHU216HW,2013-04-04 14:35:00,
2013-04-04 11:05:00,73.6,13.8,29.62,South,180,0.2,0.2,1,0.00,,,0.05,WUHU216HW,2013-04-04 15:05:00,
2013-04-04 11:35:00,73.4,13.7,29.61,West,270,0.4,0.4,1,0.00,,,0.05,WUHU216HW,2013-04-04 15:35:00,
2013-04-04 12:05:00,73.3,13.5,29.62,South,180,1.8,1.8,1,0.00,,,0.05,WUHU216HW,2013-04-04 16:05:00,
2013-04-04 12:35:00,72.9,13.2,29.62,West,270,0.2,0.2,1,0.00,,,0.05,WUHU216HW,2013-04-04 16:35:00,
2013-04-04 13:05:00,72.0,12.5,29.61,West,270,1.6,1.6,1,0.00,,,0.05,WUHU216HW,2013-04-04 17:05:00,
2013-04-04 13:35:00,71.3,12.0,29.62,WSW,248,2.0,2.0,1,0.00,,,0.05,WUHU216HW,2013-04-04 17:35:00,
2013-04-04 14:05:00,70.7,11.5,29.63,SSW,203,3.4,3.4,1,0.00,,,0.05,WUHU216HW,2013-04-04 18:05:00,
2013-04-04 14:35:00,70.9,11.7,29.60,ESE,113,0.4,0.4,1,0.00,,,0.05,WUHU216HW,2013-04-04 18:35:00,
2013-04-04 15:05:00,70.7,11.5,29.58,SW,225,3.6,3.6,1,0.13,,,0.05,WUHU216HW,2013-04-04 19:05:00,
2013-04-04 15:35:00,70.4,11.3,29.58,WSW,248,3.4,3.4,1,0.17,,,0.18,WUHU216HW,2013-04-04 19:35:00,
2013-04-04 16:05:00,69.8,10.8,29.55,East,90,1.3,1.3,1,0.06,,,0.22,WUHU216HW,2013-04-04 20:05:00,
2013-04-04 16:35:00,68.9,10.2,29.48,East,90,0.4,0.4,1,0.02,,,0.24,WUHU216HW,2013-04-04 20:35:00,
2013-04-04 17:04:00,67.7,9.3,29.51,WNW,293,0.4,0.4,1,0.00,,,0.24,WUHU216HW,2013-04-04 21:04:00,
2013-04-04 17:35:00,68.0,9.5,29.50,West,270,0.2,0.2,1,0.00,,,0.24,WUHU216HW,2013-04-04 21:35:00,
2013-04-04 18:05:00,69.8,10.8,29.50,SW,225,0.0,0.0,1,0.00,,,0.24,WUHU216HW,2013-04-04 22:05:00,
2013-04-04 18:35:00,69.1,10.3,29.51,WSW,248,1.1,1.1,1,0.00,,,0.24,WUHU216HW,2013-04-04 22:35:00,
2013-04-04 19:04:00,68.0,9.5,29.51,WSW,248,0.0,0.0,1,0.00,,,0.24,WUHU216HW,2013-04-04 23:04:00,
2013-04-04 19:35:00,67.1,8.8,29.49,WSW,248,0.0,0.0,1,0.00,,,0.24,WUHU216HW,2013-04-04 23:35:00,
2013-04-04 20:04:00,66.4,8.3,29.49,WSW,248,0.0,0.0,1,0.00,,,0.24,WUHU216HW,2013-04-05 00:04:00,
2013-04-04 20:35:00,65.7,7.7,29.52,WSW,248,0.0,0.0,1,0.00,,,0.24,WUHU216HW,2013-04-05 00:35:00,
2013-04-04 21:05:00,65.5,7.6,29.54,North,0,0.0,0.0,1,0.00,,,0.24,WUHU216HW,2013-04-05 01:05:00,
2013-04-04 21:35:00,65.3,7.4,29.55,North,0,0.0,0.0,1,0.00,,,0.24,WUHU216HW,2013-04-05 01:35:00,
2013-04-04 22:05:00,65.5,7.6,29.56,North,0,0.0,0.0,1,0.00,,,0.24,WUHU216HW,2013-04-05 02:05:00,
2013-04-04 22:35:00,66.6,8.4,29.57,North,0,0.0,0.0,1,0.00,,,0.24,WUHU216HW,2013-04-05 02:35:00,
2013-04-04 23:05:00,67.0,8.6,29.54,North,0,0.0,0.0,1,0.00,,,0.24,WUHU216HW,2013-04-05 03:05:00,
2013-04-04 23:35:00,67.5,9.1,29.54,North,0,0.0,0.0,1,0.00,,,0.24,WUHU216HW,2013-04-05 03:35:00,